Annette Island, AK

9:29 PM AKDT on July 29, 2016 (GMT -0800)
Annette Island | | Change Station

Elev 112 ft 55.04 °N, 131.57 °W | Updated 36 minutes ago

Light Rain
Light Rain
59 °F
Feels Like 59 °F
N
4
Wind Variable Wind from WNW

Today
High -- | Low -- °F
--% Chance of Precip.
Yesterday
High -- | Low -- °F
Precip. -- in
Pressure 30.18 in
Visibility 10.0 miles
Clouds Few 3400 ft
Mostly Cloudy 5500 ft
Overcast 8000 ft
Dew Point 52 °F
Humidity 78%
Rainfall 0.00 in
Snow Depth Not available.
4:50 AM 8:53 PM
Waning Crescent, 16% visible
METAR PANT 300453Z AUTO 29003KT 10SM -RA FEW034 BKN055 OVC080 15/11 A3018 RMK AO2 RAB53 SLP219 P0000 T01500111 TSNO
Pressure 30.18 in
Visibility 10.0 miles
Clouds Few 3400 ft
Mostly Cloudy 5500 ft
Overcast 8000 ft
Dew Point 52 °F
Humidity 78%
Rainfall 0.00 in
Snow Depth Not available.
4:50 AM 8:53 PM
Waning Crescent, 16% visible
METAR PANT 300453Z AUTO 29003KT 10SM -RA FEW034 BKN055 OVC080 15/11 A3018 RMK AO2 RAB53 SLP219 P0000 T01500111 TSNO

10-Day Weather Forecast

Almanac

Astronomy

Jul. 29, 2016 Rise Set
Actual Time
Civil Twilight
Nautical Twilight
Astronomical Twilight
Moon
Length of Visible Light
Length of Day
Tomorrow will be .
, % of the Moon is Illuminated

Today's Extremes

State Highs State Lows

Community

WunderPhotos

Upload Photos

1,928,506 photos uploaded!

WunderBlog® & News

Nearby

Air Quality

  Air Quality AQ Index Pollutant
Not available.

Snow Depth

Station Depth Elevation

Earthquake Activity

City Distance Mag. Time & Date
Minimum magnitude displayed is 2.5.

Coastal Water Temperatures

Place Temperature

Stations

Nearby Weather Stations

Station Location Temp. Windchill Dew Point Humidity Wind Precip. Elev Updated Type
                   

Watches & Warnings

There are currently no watches in effect.